createdAt,value
2019-05-18T00:02:00.662Z,96.40
2019-05-18T00:04:27.411Z,96.60
2019-05-18T00:06:54.252Z,96.60
2019-05-18T00:09:21.173Z,96.70
2019-05-18T00:11:47.908Z,96.70
2019-05-18T00:14:14.642Z,96.80
2019-05-18T00:16:41.427Z,96.80
2019-05-18T00:19:08.064Z,96.90
2019-05-18T00:21:34.730Z,96.90
2019-05-18T00:24:01.407Z,96.60
2019-05-18T00:26:28.144Z,96.60
2019-05-18T00:28:55.397Z,96.50
2019-05-18T00:31:23.286Z,96.90
2019-05-18T00:33:50.065Z,96.90
2019-05-18T00:36:16.925Z,97.10
2019-05-18T00:38:43.800Z,97.10
2019-05-18T00:41:11.651Z,97.30
2019-05-18T00:43:38.305Z,96.80
2019-05-18T00:46:05.109Z,96.90
2019-05-18T00:48:31.984Z,97.20
2019-05-18T00:50:58.717Z,97.50
2019-05-18T00:53:25.409Z,97.40
2019-05-18T00:55:52.193Z,98.10
2019-05-18T00:58:18.997Z,98.00
2019-05-18T01:00:45.662Z,97.90
2019-05-18T01:03:13.418Z,97.70
2019-05-18T01:05:40.181Z,97.80
2019-05-18T01:08:06.846Z,97.60
2019-05-18T01:10:33.639Z,97.50
2019-05-18T01:13:00.514Z,97.80
2019-05-18T01:15:27.173Z,97.90
2019-05-18T01:17:57.423Z,97.70
2019-05-18T01:20:22.515Z,97.80
2019-05-18T01:22:49.162Z,97.70
2019-05-18T01:25:16.030Z,97.80
2019-05-18T01:27:42.702Z,97.70
2019-05-18T01:30:10.658Z,97.80
2019-05-18T01:32:37.407Z,97.60
2019-05-18T01:35:05.307Z,97.60
2019-05-18T01:37:32.115Z,97.90
2019-05-18T01:39:58.917Z,98.10
2019-05-18T01:42:25.678Z,98.40
2019-05-18T01:44:52.463Z,98.10
2019-05-18T01:47:19.175Z,98.30
2019-05-18T01:49:45.930Z,98.40
2019-05-18T01:52:12.741Z,98.70
2019-05-18T01:54:39.682Z,98.60
2019-05-18T01:57:06.355Z,98.40
2019-05-18T01:59:33.143Z,98.50
2019-05-18T02:01:59.890Z,98.50
2019-05-18T02:04:26.752Z,98.70
2019-05-18T02:06:53.440Z,98.60
2019-05-18T02:09:20.184Z,98.30
2019-05-18T02:11:47.035Z,98.60
2019-05-18T02:14:13.793Z,98.50
2019-05-18T02:16:40.471Z,98.90
2019-05-18T02:19:07.210Z,98.80
2019-05-18T02:21:33.977Z,98.80
2019-05-18T02:24:00.818Z,98.90
2019-05-18T02:26:27.483Z,98.50
2019-05-18T02:28:54.259Z,98.60
2019-05-18T02:31:21.005Z,98.50
2019-05-18T02:33:48.645Z,98.50
2019-05-18T02:36:15.330Z,98.50
2019-05-18T02:38:41.978Z,98.50
2019-05-18T02:41:08.726Z,98.60
2019-05-18T02:43:35.506Z,98.80
2019-05-18T02:46:02.229Z,99.00
2019-05-18T02:48:45.799Z,99.00
2019-05-18T02:50:57.493Z,99.00
2019-05-18T02:53:24.237Z,99.20
2019-05-18T02:55:50.958Z,98.80
2019-05-18T02:58:17.729Z,98.90
2019-05-18T03:00:44.584Z,98.60
2019-05-18T03:03:11.148Z,98.90
2019-05-18T03:05:37.815Z,98.60
2019-05-18T03:08:04.461Z,98.50
2019-05-18T03:10:31.202Z,98.90
2019-05-18T03:12:58.147Z,99.30
2019-05-18T03:15:24.894Z,99.30
2019-05-18T03:17:51.680Z,99.30
2019-05-18T03:20:18.468Z,99.60
2019-05-18T03:22:45.330Z,99.40
2019-05-18T03:25:13.220Z,99.20
2019-05-18T03:27:39.922Z,99.20
2019-05-18T03:30:06.874Z,99.30
2019-05-18T03:32:33.560Z,99.60
2019-05-18T03:35:00.195Z,99.90
2019-05-18T03:37:26.997Z,99.90
2019-05-18T03:39:53.654Z,99.80
2019-05-18T03:42:20.337Z,99.60
2019-05-18T03:44:47.227Z,99.90
2019-05-18T03:47:14.072Z,99.90
2019-05-18T03:49:40.843Z,99.90
2019-05-18T03:52:07.814Z,99.80
2019-05-18T03:54:34.588Z,99.80
2019-05-18T03:57:01.345Z,99.60
2019-05-18T03:59:29.176Z,99.50
2019-05-18T04:01:56.062Z,99.60
2019-05-18T04:04:22.737Z,99.40
2019-05-18T04:06:49.439Z,99.70
2019-05-18T04:09:16.085Z,99.70
2019-05-18T04:11:42.732Z,99.70
2019-05-18T04:14:09.412Z,99.70
2019-05-18T04:16:37.148Z,99.90
2019-05-18T04:19:03.811Z,99.90
2019-05-18T04:21:30.529Z,99.90
2019-05-18T04:23:57.337Z,99.90
2019-05-18T04:26:24.089Z,99.90
2019-05-18T04:28:50.869Z,99.90
2019-05-18T04:31:17.852Z,99.90
2019-05-18T04:33:44.686Z,99.90
2019-05-18T04:36:11.353Z,99.90
2019-05-18T04:38:38.112Z,99.90
2019-05-18T04:41:04.876Z,99.90
2019-05-18T04:43:31.867Z,99.90
2019-05-18T04:45:58.624Z,99.70
2019-05-18T04:48:25.365Z,99.40
2019-05-18T04:50:52.385Z,99.40
2019-05-18T04:53:19.050Z,99.50
2019-05-18T04:55:45.928Z,99.20
2019-05-18T04:58:13.810Z,98.80
2019-05-18T05:00:40.553Z,98.80
2019-05-18T05:03:07.533Z,98.70
2019-05-18T05:05:34.336Z,98.20
2019-05-18T05:08:02.261Z,98.40
2019-05-18T05:10:28.970Z,98.40
2019-05-18T05:12:55.858Z,97.90
2019-05-18T05:15:22.591Z,97.60
2019-05-18T05:17:49.293Z,97.50
2019-05-18T05:20:19.717Z,97.60
2019-05-18T05:22:44.655Z,96.90
2019-05-18T05:25:11.425Z,96.90
2019-05-18T05:27:38.119Z,97.50
2019-05-18T05:30:06.287Z,97.10
2019-05-18T05:32:33.042Z,97.00
2019-05-18T05:34:59.859Z,96.80
2019-05-18T05:37:26.527Z,97.30
2019-05-18T05:39:53.305Z,96.80
2019-05-18T05:42:20.015Z,96.50
2019-05-18T05:44:46.867Z,95.80
2019-05-18T05:47:13.635Z,96.30
2019-05-18T05:49:40.431Z,95.90
2019-05-18T05:52:07.224Z,95.60
2019-05-18T05:54:33.883Z,96.00
2019-05-18T05:57:00.707Z,95.50
2019-05-18T05:59:27.422Z,95.60
2019-05-18T06:01:54.169Z,95.70
2019-05-18T06:04:20.912Z,95.20
2019-05-18T06:06:47.619Z,95.10
2019-05-18T06:09:14.358Z,95.30
2019-05-18T06:11:41.108Z,94.40
2019-05-18T06:14:07.919Z,94.30
2019-05-18T06:16:34.572Z,94.10
2019-05-18T06:19:01.368Z,94.90
2019-05-18T06:21:28.230Z,93.90
2019-05-18T06:23:54.896Z,93.20
2019-05-18T06:26:24.250Z,93.40
2019-05-18T06:28:50.307Z,92.80
2019-05-18T06:31:17.060Z,92.40
2019-05-18T06:33:43.844Z,93.20
2019-05-18T06:36:10.531Z,92.80
2019-05-18T06:38:37.370Z,92.70
2019-05-18T06:41:04.157Z,92.30
2019-05-18T06:43:30.848Z,91.20
2019-05-18T06:45:57.511Z,90.90
2019-05-18T06:48:24.197Z,90.80
2019-05-18T06:51:06.021Z,91.00
2019-05-18T06:53:21.613Z,90.60
2019-05-18T06:55:49.406Z,91.30
2019-05-18T06:58:16.590Z,91.50
2019-05-18T07:00:43.233Z,90.80
2019-05-18T07:03:10.044Z,91.00
2019-05-18T07:05:36.902Z,91.50
2019-05-18T07:08:03.589Z,91.00
2019-05-18T07:10:30.384Z,91.20
2019-05-18T07:12:57.171Z,91.20
2019-05-18T07:15:23.976Z,91.60
2019-05-18T07:17:50.748Z,91.00
2019-05-18T07:20:17.735Z,91.10
2019-05-18T07:22:45.625Z,91.40
2019-05-18T07:25:13.870Z,91.80
2019-05-18T07:27:40.619Z,91.00
2019-05-18T07:30:08.404Z,91.00
2019-05-18T07:32:35.375Z,90.90
2019-05-18T07:35:02.083Z,90.50
2019-05-18T07:37:29.938Z,90.60
2019-05-18T07:39:56.645Z,90.50
2019-05-18T07:42:24.296Z,90.10
2019-05-18T07:44:51.092Z,90.40
2019-05-18T07:47:17.800Z,88.60
2019-05-18T07:49:44.563Z,90.00
2019-05-18T07:52:11.227Z,90.00
2019-05-18T07:54:38.024Z,88.20
2019-05-18T07:57:04.975Z,90.10
2019-05-18T07:59:31.641Z,90.10
2019-05-18T08:01:58.301Z,90.00
2019-05-18T08:04:25.101Z,90.20
2019-05-18T08:06:51.793Z,89.20
2019-05-18T08:09:18.786Z,88.70
2019-05-18T08:11:45.561Z,88.70
2019-05-18T08:14:12.467Z,87.20
2019-05-18T08:16:39.327Z,87.70
2019-05-18T08:19:06.117Z,86.40
2019-05-18T08:21:32.915Z,85.70
2019-05-18T08:23:59.591Z,85.70
2019-05-18T08:26:26.481Z,85.80
2019-05-18T08:28:53.259Z,86.30
2019-05-18T08:31:19.899Z,87.40
2019-05-18T08:33:46.669Z,86.20
2019-05-18T08:36:14.059Z,86.60
2019-05-18T08:38:41.017Z,87.60
2019-05-18T08:41:07.666Z,85.00
2019-05-18T08:43:34.357Z,85.70
2019-05-18T08:46:01.169Z,87.10
2019-05-18T08:48:27.923Z,86.00
2019-05-18T08:50:54.686Z,87.30
2019-05-18T08:53:21.446Z,86.80
2019-05-18T08:55:48.255Z,87.50
2019-05-18T08:58:15.032Z,86.10
2019-05-18T09:00:41.853Z,86.30
2019-05-18T09:03:08.592Z,87.30
2019-05-18T09:05:35.430Z,86.50
2019-05-18T09:08:02.287Z,88.00
2019-05-18T09:10:29.172Z,87.90
2019-05-18T09:12:56.060Z,88.00
2019-05-18T09:15:23.223Z,88.60
2019-05-18T09:17:50.085Z,88.80
2019-05-18T09:20:17.596Z,87.60
2019-05-18T09:22:45.931Z,88.30
2019-05-18T09:25:13.177Z,88.10
2019-05-18T09:27:39.898Z,88.50
2019-05-18T09:30:07.820Z,88.90
2019-05-18T09:32:34.897Z,88.10
2019-05-18T09:35:02.264Z,90.00
2019-05-18T09:37:28.995Z,89.80
2019-05-18T09:39:56.151Z,89.20
2019-05-18T09:42:22.923Z,89.10
2019-05-18T09:44:49.811Z,89.80
2019-05-18T09:47:16.636Z,89.20
2019-05-18T09:49:43.543Z,89.00
2019-05-18T09:52:10.596Z,90.50
2019-05-18T09:54:37.862Z,90.30
2019-05-18T09:57:04.976Z,90.20
2019-05-18T09:59:31.812Z,90.60
2019-05-18T10:01:58.767Z,90.80
2019-05-18T10:04:25.533Z,90.50
2019-05-18T10:06:59.182Z,90.60
2019-05-18T10:09:26.227Z,89.80
2019-05-18T10:11:53.051Z,87.90
2019-05-18T10:14:19.715Z,87.90
2019-05-18T10:16:46.467Z,88.40
2019-05-18T10:19:14.436Z,88.00
2019-05-18T10:21:41.179Z,88.00
2019-05-18T10:24:08.051Z,87.00
2019-05-18T10:26:34.859Z,88.00
2019-05-18T10:29:01.725Z,88.10
2019-05-18T10:31:28.626Z,88.00
2019-05-18T10:33:55.414Z,88.80
2019-05-18T10:36:22.822Z,88.10
2019-05-18T10:38:49.672Z,87.50
2019-05-18T10:41:16.393Z,87.50
2019-05-18T10:43:47.074Z,88.30
2019-05-18T10:46:11.921Z,87.70
2019-05-18T10:48:39.027Z,86.70
2019-05-18T10:51:05.867Z,88.10
2019-05-18T10:53:32.620Z,88.90
2019-05-18T10:55:59.513Z,87.70
2019-05-18T10:58:26.384Z,88.50
2019-05-18T11:00:53.154Z,87.60
2019-05-18T11:03:19.945Z,86.70
2019-05-18T11:05:46.729Z,89.90
2019-05-18T11:08:13.490Z,88.60
2019-05-18T11:10:40.279Z,87.80
2019-05-18T11:13:07.031Z,87.10
2019-05-18T11:15:33.786Z,85.80
2019-05-18T11:18:00.568Z,87.50
2019-05-18T11:20:27.425Z,87.50
2019-05-18T11:22:54.269Z,86.70
2019-05-18T11:25:21.047Z,86.30
2019-05-18T11:27:47.739Z,86.20
2019-05-18T11:30:14.993Z,85.10
2019-05-18T11:32:41.780Z,82.90
2019-05-18T11:35:09.056Z,84.70
2019-05-18T11:37:35.826Z,84.50
2019-05-18T11:40:07.782Z,83.30
2019-05-18T11:42:34.316Z,82.80
2019-05-18T11:45:00.991Z,84.60
2019-05-18T11:47:27.920Z,81.90
2019-05-18T11:49:54.677Z,82.10
2019-05-18T11:52:21.456Z,80.80
2019-05-18T11:54:48.304Z,79.80
2019-05-18T11:57:15.063Z,79.10
2019-05-18T11:59:41.890Z,76.10
2019-05-18T12:02:08.801Z,75.70
2019-05-18T12:04:35.591Z,75.00
2019-05-18T12:07:02.427Z,74.10
2019-05-18T12:09:29.191Z,74.10
2019-05-18T12:11:55.960Z,74.70
2019-05-18T12:14:22.761Z,77.50
2019-05-18T12:16:49.431Z,78.40
2019-05-18T12:19:16.089Z,74.10
2019-05-18T12:21:42.886Z,74.00
2019-05-18T12:24:16.667Z,73.80
2019-05-18T12:26:44.709Z,73.90
2019-05-18T12:29:11.479Z,73.00
2019-05-18T12:31:38.287Z,72.70
2019-05-18T12:34:05.033Z,75.70
2019-05-18T12:36:31.797Z,73.70
2019-05-18T12:38:58.461Z,69.80
2019-05-18T12:41:33.130Z,72.40
2019-05-18T12:44:07.313Z,72.80
2019-05-18T12:46:34.143Z,72.60
2019-05-18T12:49:01.040Z,72.60
2019-05-18T12:51:28.014Z,69.40
2019-05-18T12:53:54.763Z,70.10
2019-05-18T12:56:22.636Z,68.30
2019-05-18T12:58:49.474Z,69.20
2019-05-18T13:01:16.228Z,65.20
2019-05-18T13:03:43.035Z,66.10
2019-05-18T13:06:10.079Z,67.20
2019-05-18T13:08:36.890Z,66.60
2019-05-18T13:11:03.656Z,68.50
2019-05-18T13:13:30.467Z,68.40
2019-05-18T13:15:57.110Z,68.60
2019-05-18T13:18:23.895Z,66.90
2019-05-18T13:20:51.596Z,67.40
2019-05-18T13:23:18.484Z,66.10
2019-05-18T13:25:45.256Z,67.90
2019-05-18T13:28:12.093Z,67.10
2019-05-18T13:30:38.973Z,68.90
2019-05-18T13:33:05.668Z,67.70
2019-05-18T13:35:32.503Z,68.40
2019-05-18T13:37:59.298Z,70.50
2019-05-18T13:40:26.173Z,70.70
2019-05-18T13:42:52.909Z,66.80
2019-05-18T13:45:19.876Z,67.20
2019-05-18T13:47:46.613Z,67.50
2019-05-18T13:50:13.701Z,67.60
2019-05-18T13:52:40.500Z,68.80
2019-05-18T13:55:07.621Z,67.30
2019-05-18T13:57:34.444Z,62.00
2019-05-18T14:00:01.299Z,65.00
2019-05-18T14:02:28.180Z,65.70
2019-05-18T14:05:32.938Z,66.50
2019-05-18T14:07:59.809Z,70.00
2019-05-18T14:10:26.489Z,70.60
2019-05-18T14:12:53.275Z,69.80
2019-05-18T14:15:22.756Z,66.90
2019-05-18T14:17:49.174Z,66.70
2019-05-18T14:20:17.119Z,67.20
2019-05-18T14:22:43.932Z,66.90
2019-05-18T14:25:19.250Z,68.80
2019-05-18T14:27:39.200Z,66.80
2019-05-18T14:30:06.975Z,66.50
2019-05-18T14:32:33.771Z,66.70
2019-05-18T14:35:02.550Z,67.20
2019-05-18T14:37:29.242Z,68.40
2019-05-18T14:39:56.003Z,67.70
2019-05-18T14:42:22.896Z,66.80
2019-05-18T14:44:50.588Z,65.80
2019-05-18T14:47:17.403Z,65.80
2019-05-18T14:49:44.046Z,66.30
2019-05-18T14:52:12.116Z,65.80
2019-05-18T14:54:39.374Z,66.60
2019-05-18T14:57:06.267Z,65.00
2019-05-18T14:59:32.995Z,63.20
2019-05-18T15:01:59.692Z,65.30
2019-05-18T15:04:26.470Z,63.60
2019-05-18T15:06:53.131Z,62.40
2019-05-18T15:09:19.875Z,62.90
2019-05-18T15:11:46.745Z,61.90
2019-05-18T15:14:13.613Z,63.10
2019-05-18T15:16:40.439Z,62.60
2019-05-18T15:19:07.301Z,61.20
2019-05-18T15:21:34.079Z,61.10
2019-05-18T15:24:00.917Z,61.70
2019-05-18T15:26:27.829Z,61.00
2019-05-18T15:28:54.599Z,62.30
2019-05-18T15:31:23.782Z,65.30
2019-05-18T15:33:50.955Z,65.60
2019-05-18T15:36:17.727Z,65.90
2019-05-18T15:38:44.469Z,65.30
2019-05-18T15:41:11.321Z,65.90
2019-05-18T15:43:38.014Z,67.30
2019-05-18T15:46:05.021Z,67.40
2019-05-18T15:48:31.720Z,66.90
2019-05-18T15:50:59.377Z,65.20
2019-05-18T15:53:26.328Z,66.40
2019-05-18T15:56:04.746Z,66.50
2019-05-18T15:58:21.658Z,66.40
2019-05-18T16:00:48.480Z,66.80
2019-05-18T16:03:15.372Z,68.10
2019-05-18T16:05:42.165Z,66.40
2019-05-18T16:08:09.142Z,66.40
2019-05-18T16:10:35.953Z,64.80
2019-05-18T16:13:02.712Z,65.70
2019-05-18T16:15:29.512Z,65.90
2019-05-18T16:17:56.281Z,65.40
2019-05-18T16:20:23.138Z,64.80
2019-05-18T16:22:50.003Z,65.50
2019-05-18T16:25:16.898Z,65.00
2019-05-18T16:27:43.735Z,66.10
2019-05-18T16:30:11.288Z,65.80
2019-05-18T16:32:38.075Z,65.80
2019-05-18T16:35:06.956Z,67.70
2019-05-18T16:37:33.711Z,66.40
2019-05-18T16:40:00.484Z,66.30
2019-05-18T16:42:28.279Z,68.60
2019-05-18T16:44:54.980Z,68.40
2019-05-18T16:47:22.735Z,69.40
2019-05-18T16:49:49.557Z,70.80
2019-05-18T16:52:16.314Z,69.30
2019-05-18T16:54:43.071Z,71.00
2019-05-18T16:57:09.961Z,69.40
2019-05-18T16:59:36.617Z,70.00
2019-05-18T17:02:03.773Z,69.00
2019-05-18T17:04:30.612Z,69.70
2019-05-18T17:06:57.441Z,68.10
2019-05-18T17:09:24.363Z,66.20
2019-05-18T17:11:51.188Z,68.10
2019-05-18T17:14:18.086Z,69.60
2019-05-18T17:16:44.836Z,67.90
2019-05-18T17:19:11.520Z,68.70
2019-05-18T17:21:38.189Z,69.10
2019-05-18T17:24:05.039Z,69.60
2019-05-18T17:26:31.822Z,70.50
2019-05-18T17:28:58.572Z,70.20
2019-05-18T17:31:25.493Z,74.40
2019-05-18T17:33:52.325Z,74.60
2019-05-18T17:36:19.677Z,76.20
2019-05-18T17:38:46.803Z,77.50
2019-05-18T17:41:13.580Z,79.70
2019-05-18T17:43:40.460Z,80.70
2019-05-18T17:46:09.270Z,81.30
2019-05-18T17:48:35.906Z,83.70
2019-05-18T17:51:02.662Z,85.10
2019-05-18T17:53:29.431Z,85.00
2019-05-18T17:55:56.112Z,84.60
2019-05-18T17:58:22.983Z,83.70
2019-05-18T18:00:49.765Z,85.10
2019-05-18T18:03:16.571Z,86.10
2019-05-18T18:05:43.317Z,87.30
2019-05-18T18:08:10.095Z,86.70
2019-05-18T18:10:38.000Z,87.30
2019-05-18T18:13:04.783Z,88.00
2019-05-18T18:15:31.542Z,87.50
2019-05-18T18:17:58.366Z,87.80
2019-05-18T18:20:25.161Z,87.50
2019-05-18T18:22:52.132Z,87.80
2019-05-18T18:25:18.905Z,90.20
2019-05-18T18:27:45.702Z,90.50
2019-05-18T18:30:13.101Z,90.20
2019-05-18T18:32:40.044Z,90.10
2019-05-18T18:35:08.062Z,89.00
2019-05-18T18:37:34.956Z,87.60
2019-05-18T18:40:01.653Z,89.20
2019-05-18T18:42:28.332Z,89.10
2019-05-18T18:44:55.141Z,88.60
2019-05-18T18:47:21.912Z,89.20
2019-05-18T18:49:48.690Z,89.10
2019-05-18T18:52:15.378Z,89.70
2019-05-18T18:54:42.136Z,90.00
2019-05-18T18:57:08.913Z,90.00
2019-05-18T18:59:35.686Z,90.50
2019-05-18T19:02:02.340Z,90.90
2019-05-18T19:04:29.267Z,91.20
2019-05-18T19:06:56.035Z,91.00
2019-05-18T19:09:22.875Z,91.40
2019-05-18T19:11:49.565Z,90.90
2019-05-18T19:14:17.537Z,90.90
2019-05-18T19:16:44.203Z,90.30
2019-05-18T19:19:10.981Z,90.00
2019-05-18T19:21:37.984Z,90.70
2019-05-18T19:24:04.773Z,91.20
2019-05-18T19:26:31.480Z,92.20
2019-05-18T19:28:58.255Z,92.30
2019-05-18T19:31:25.114Z,92.40
2019-05-18T19:33:51.923Z,91.90
2019-05-18T19:36:18.701Z,92.70
2019-05-18T19:38:45.642Z,92.70
2019-05-18T19:41:12.710Z,92.70
2019-05-18T19:43:39.602Z,92.60
2019-05-18T19:46:06.383Z,92.80
2019-05-18T19:48:34.578Z,93.00
2019-05-18T19:51:43.305Z,93.20
2019-05-18T20:50:38.549Z,95.40
2019-05-18T21:25:46.694Z,96.50
2019-05-18T21:28:13.348Z,96.40
2019-05-18T21:30:40.336Z,96.10
2019-05-18T21:33:07.296Z,96.10
2019-05-18T21:35:34.058Z,96.20
2019-05-18T21:38:01.186Z,96.30
2019-05-18T21:40:27.960Z,96.40
2019-05-18T21:42:54.646Z,96.20
2019-05-18T21:45:21.289Z,96.60
2019-05-18T21:47:48.159Z,96.60
2019-05-18T21:50:17.133Z,96.60
2019-05-18T21:52:43.643Z,96.50
2019-05-18T21:55:10.642Z,96.40
2019-05-18T21:57:37.589Z,96.70
2019-05-18T22:00:06.209Z,96.80
2019-05-18T22:02:35.162Z,97.00
2019-05-18T22:05:01.904Z,97.10
2019-05-18T22:07:31.121Z,97.10
2019-05-18T22:09:57.803Z,97.20
2019-05-18T22:12:24.457Z,97.30
2019-05-18T22:14:51.206Z,97.30
2019-05-18T22:17:18.027Z,97.50
2019-05-18T22:19:44.751Z,97.50
2019-05-18T22:22:11.510Z,97.30
2019-05-18T22:24:38.288Z,97.70
2019-05-18T22:27:05.020Z,97.50
2019-05-18T22:29:32.930Z,97.80
2019-05-18T22:31:59.703Z,97.80
2019-05-18T22:34:26.657Z,98.00
2019-05-18T22:36:53.410Z,98.30
2019-05-18T22:39:21.249Z,97.60
2019-05-18T22:41:48.115Z,97.50
2019-05-18T22:44:15.006Z,98.10
2019-05-18T22:46:41.782Z,98.20
2019-05-18T22:49:08.510Z,98.10
2019-05-18T22:51:35.165Z,98.30
2019-05-18T22:54:02.955Z,98.00
2019-05-18T22:56:29.576Z,97.80
2019-05-18T22:58:56.333Z,97.60
2019-05-18T23:01:23.066Z,98.10
2019-05-18T23:03:51.692Z,98.00
2019-05-18T23:06:18.322Z,98.20
2019-05-18T23:08:46.735Z,97.70
2019-05-18T23:11:13.420Z,98.10
2019-05-18T23:13:40.175Z,98.20
2019-05-18T23:16:07.006Z,98.20
2019-05-18T23:18:33.813Z,98.40
2019-05-18T23:21:00.577Z,98.60
2019-05-18T23:23:27.370Z,98.70
2019-05-18T23:25:54.157Z,98.20
2019-05-18T23:28:20.977Z,98.90
2019-05-18T23:30:47.749Z,98.70
2019-05-18T23:33:14.499Z,98.60
2019-05-18T23:35:41.249Z,98.90
2019-05-18T23:38:09.129Z,98.80
2019-05-18T23:40:35.855Z,99.00
2019-05-18T23:43:02.610Z,99.00
2019-05-18T23:45:29.371Z,99.00
2019-05-18T23:47:59.053Z,98.90
2019-05-18T23:50:24.585Z,99.20
2019-05-18T23:52:51.393Z,98.90
2019-05-18T23:55:18.126Z,99.20
2019-05-18T23:57:44.875Z,99.20
